Sprucedale, Canada
Current Conditions -  °F | °C
As of 1:00 AM on Sunday 26 Oct 2014 (Local Time) from CYQA Reporting Station
Overcast Overcast  
Wind Chill: 50°   Ceiling: 7000
Heat Index: 50°   Visibility: 9mi
Dew Point: 37°   Wind: 14mph
Humidity: 62%   Direction: 300°WNW
Pressure: 29.53"   Gusts: 22mph
Location:  45.48°N, 79.47°W
Report Text: CYQA 260500Z AUTO 30012G19KT 9SM SCT036 OVC070 10/03 A2953 RMK SLP005
Loading
Personal Weather Stations






























Interactive Weather Map
Tropical Storm Tracking
New forecast layout! Learn more

10-Day Weather Forecast

Advertisements
Track Severe Weather on mobile